PWSweather.com
Personal Weather Stations
Station Observations
WISCHPK61
Green Bay Schmitt Park, Green Bay, WI 54311

Green Bay Schmitt ParkGreen Bay, WI 54311

Lat: 44.514277, Lon: -87.935067

Elevation: 735

Station Type: Acu Rite Pro Weather Center model 02032C

http://greenbayweathercam.com

High Low Average
Temperature 25.9°F-3.4°C -2.0°F-18.9°C 9.9°F-12.3°C
Dew Point 25.7°F-3.5°C -5.0°F-20.6°C 9.4°F-12.6°C
Winds Calm Calm Calm Calm Calm SWCalm SW
Wind Gusts -- -- --
Humidity 99% 83% 98%
Pressure 29.52 in999.7 mb 29.43 in996.6 mb -
Precipitation 0.00 in0.0 mm - -
Hour Temp Dew Point Humidity Winds Wind Gusts Pressure Precip Precip Rate Daily Precip Total
12:00 AM 5.9°F-14.5°C -3.0°F-19.4°C 66% Calm Calm -- 29.49 in998.6 mb - 0.00 in0.0 mm 0.00 in0.0 mm
01:00 AM 4.3°F-15.4°C 4.1°F-15.5°C 99% Calm Calm -- 29.50 in999.0 mb - 0.00 in0.0 mm 0.00 in0.0 mm
02:00 AM 4.1°F-15.5°C 3.9°F-15.6°C 99% Calm Calm -- 29.51 in999.3 mb - 0.00 in0.0 mm 0.00 in0.0 mm
03:00 AM 4.6°F-15.2°C 4.4°F-15.3°C 99% Calm Calm -- 29.52 in999.7 mb - 0.00 in0.0 mm 0.00 in0.0 mm
04:00 AM 1.7°F-16.8°C 1.5°F-16.9°C 99% Calm Calm -- 29.51 in999.3 mb - 0.00 in0.0 mm 0.00 in0.0 mm
05:00 AM -0.6°F-18.1°C -2.8°F-19.3°C 90% Calm Calm -- 29.51 in999.3 mb - 0.00 in0.0 mm 0.00 in0.0 mm
06:00 AM -0.9°F-18.3°C -1.1°F-18.4°C 99% Calm Calm -- 29.51 in999.3 mb - 0.00 in0.0 mm 0.00 in0.0 mm
07:00 AM -1.1°F-18.4°C -5.0°F-20.6°C 83% Calm Calm -- 29.52 in999.7 mb - 0.00 in0.0 mm 0.00 in0.0 mm
08:00 AM -2.0°F-18.9°C -2.2°F-19.0°C 99% Calm Calm -- 29.52 in999.7 mb - 0.00 in0.0 mm 0.00 in0.0 mm
09:00 AM 1.6°F-16.9°C 1.4°F-17.0°C 99% Calm Calm -- 29.52 in999.7 mb - 0.00 in0.0 mm 0.00 in0.0 mm
10:00 AM 10.2°F-12.1°C 10.0°F-12.2°C 99% Calm Calm -- 29.52 in999.7 mb - 0.00 in0.0 mm 0.00 in0.0 mm
11:00 AM 14.2°F-9.9°C 14.0°F-10.0°C 99% Calm Calm -- 29.52 in999.7 mb - 0.00 in0.0 mm 0.00 in0.0 mm
12:00 PM 16.9°F-8.4°C 16.7°F-8.5°C 99% Calm Calm -- 29.51 in999.3 mb - 0.00 in0.0 mm 0.00 in0.0 mm
01:00 PM 21.7°F-5.7°C 21.5°F-5.8°C 99% Calm Calm -- 29.51 in999.3 mb - 0.00 in0.0 mm 0.00 in0.0 mm
02:00 PM 24.5°F-4.2°C 24.2°F-4.3°C 99% Calm Calm -- 29.48 in998.3 mb - 0.00 in0.0 mm 0.00 in0.0 mm
03:00 PM 25.9°F-3.4°C 25.7°F-3.5°C 99% Calm Calm -- 29.46 in997.6 mb - 0.00 in0.0 mm 0.00 in0.0 mm
04:00 PM 21.2°F-6.0°C 21.0°F-6.1°C 99% Calm Calm -- 29.45 in997.3 mb - 0.00 in0.0 mm 0.00 in0.0 mm
05:00 PM 17.2°F-8.2°C 17.0°F-8.3°C 99% Calm Calm -- 29.43 in996.6 mb - 0.00 in0.0 mm 0.00 in0.0 mm
06:00 PM 14.5°F-9.7°C 14.3°F-9.8°C 99% Calm Calm -- 29.43 in996.6 mb - 0.00 in0.0 mm 0.00 in0.0 mm
07:00 PM 12.4°F-10.9°C 12.2°F-11.0°C 99% Calm Calm -- 29.43 in996.6 mb - 0.00 in0.0 mm 0.00 in0.0 mm
08:00 PM 12.4°F-10.9°C 12.2°F-11.0°C 99% Calm Calm -- 29.43 in996.6 mb - 0.00 in0.0 mm 0.00 in0.0 mm
09:00 PM 12.4°F-10.9°C 12.2°F-11.0°C 99% Calm Calm -- 29.44 in997.0 mb - 0.00 in0.0 mm 0.00 in0.0 mm
10:00 PM 12.9°F-10.6°C 12.7°F-10.7°C 99% Calm Calm -- 29.44 in997.0 mb - 0.00 in0.0 mm 0.00 in0.0 mm
11:00 PM 12.9°F-10.6°C 12.7°F-10.7°C 99% Calm Calm -- 29.42 in996.3 mb - 0.00 in0.0 mm 0.00 in0.0 mm